Time;durP1;ratioP1;P1;durP2;ratioP2;P2;SDS_P1;SDS_P2;PMS_P1;PMS_P2;Temp;Humidity;BMP_temperature;BMP_pressure;BME280_temperature;BME280_humidity;BME280_pressure;Samples;Min_cycle;Max_cycle;Signal;HPM_P1;HPM_P2
2022/09/11 00:02:24;;;;;;;6.67;6.10;;;20.30;99.90;;;20.67;66.86;94841.91;6177885;23;20676;-56
2022/09/11 00:04:51;;;;;;;6.83;6.13;;;20.20;99.90;;;20.67;66.71;94839.25;6177653;23;20426;-55
2022/09/11 00:07:18;;;;;;;5.90;5.40;;;20.30;99.90;;;20.67;66.75;94839.25;6177437;23;20636;-55
2022/09/11 00:09:46;;;;;;;8.50;5.83;;;20.20;99.90;;;20.69;66.90;94839.03;6177464;23;20433;-57
2022/09/11 00:12:13;;;;;;;10.53;5.60;;;20.30;99.90;;;20.70;66.97;94836.16;6177426;23;20410;-55
2022/09/11 00:14:42;;;;;;;6.33;5.83;;;20.20;99.90;;;20.70;66.77;94833.50;6177126;23;20479;-56
2022/09/11 00:17:09;;;;;;;6.77;6.17;;;20.30;99.90;;;20.71;66.48;94835.16;6177457;23;20410;-55
2022/09/11 00:19:37;;;;;;;5.90;5.30;;;20.30;99.90;;;20.71;66.76;94836.97;6177495;23;20894;-56
2022/09/11 00:22:04;;;;;;;5.77;4.73;;;20.30;99.90;;;20.71;66.92;94836.97;6178218;23;20497;-55
2022/09/11 00:24:32;;;;;;;6.20;5.70;;;20.30;99.90;;;20.70;66.74;94832.66;6177345;23;20480;-55
2022/09/11 00:26:59;;;;;;;9.73;6.70;;;20.30;99.90;;;20.69;66.76;94833.69;6177243;23;20453;-55
2022/09/11 00:29:27;;;;;;;6.37;5.77;;;20.30;99.90;;;20.68;66.70;94835.56;6177265;23;20466;-56
2022/09/11 00:31:56;;;;;;;6.30;5.83;;;20.20;99.90;;;20.66;66.93;94834.91;6177454;23;20923;-56
2022/09/11 00:34:23;;;;;;;9.47;5.80;;;20.30;99.90;;;20.65;66.96;94843.13;6176708;23;20448;-54
2022/09/11 00:36:51;;;;;;;6.10;5.50;;;20.20;99.90;;;20.63;66.97;94839.81;6177456;23;20402;-56
2022/09/11 00:39:18;;;;;;;8.93;5.40;;;20.20;99.90;;;20.59;67.07;94840.22;6177374;23;20449;-56
2022/09/11 00:41:45;;;;;;;8.47;5.90;;;20.20;99.90;;;20.56;67.30;94837.13;6177470;23;20405;-55
2022/09/11 00:45:07;;;;;;;6.50;5.37;;;20.20;99.90;;;20.53;67.65;94848.22;6177068;23;20417;-57
2022/09/11 00:47:36;;;;;;;7.97;7.10;;;20.10;99.90;;;20.50;67.24;94843.28;6177025;23;20413;-55
2022/09/11 00:50:10;;;;;;;6.20;5.60;;;20.10;99.90;;;20.48;67.16;94842.66;6176636;23;20430;-54
2022/09/11 00:52:40;;;;;;;10.80;6.03;;;20.10;99.90;;;20.47;67.08;94843.69;6177822;23;20394;-53
2022/09/11 00:55:10;;;;;;;8.03;5.20;;;20.00;99.90;;;20.44;67.37;94839.56;6177472;23;21076;-56
2022/09/11 00:57:41;;;;;;;6.13;5.73;;;20.00;99.90;;;20.40;67.33;94843.66;6177183;23;20463;-55
2022/09/11 01:00:11;;;;;;;5.90;5.50;;;20.00;99.90;;;20.39;67.14;94844.69;6176714;23;20453;-57
2022/09/11 01:02:42;;;;;;;5.67;5.17;;;20.00;99.90;;;20.35;67.90;94838.91;6177470;23;20444;-55
2022/09/11 01:05:09;;;;;;;6.60;6.00;;;19.90;99.90;;;20.31;67.62;94843.03;6177040;23;20940;-56
2022/09/11 01:07:36;;;;;;;5.80;4.40;;;19.90;99.90;;;20.29;67.62;94850.41;6176668;23;20456;-56
2022/09/11 01:10:05;;;;;;;10.33;5.50;;;19.90;99.90;;;20.26;68.02;94850.81;6176616;23;20496;-54
2022/09/11 01:12:37;;;;;;;6.07;5.50;;;19.90;99.90;;;20.23;67.75;94845.88;6176418;23;20401;-55
2022/09/11 01:15:05;;;;;;;8.70;5.73;;;19.80;99.90;;;20.18;67.82;94837.63;6176319;23;20492;-55
2022/09/11 01:17:37;;;;;;;13.60;5.63;;;19.80;99.90;;;20.15;68.10;94838.84;6176700;23;20448;-54
2022/09/11 01:20:25;;;;;;;5.80;5.30;;;19.80;99.90;;;20.13;68.08;94842.78;6176560;23;20465;-56
2022/09/11 01:23:07;;;;;;;11.00;5.53;;;19.80;99.90;;;20.11;68.31;94842.13;6177284;23;20855;-54
2022/09/11 01:25:50;;;;;;;9.97;5.33;;;19.70;99.90;;;20.08;68.22;94848.72;6176840;23;20794;-55
2022/09/11 01:28:20;;;;;;;6.93;6.30;;;19.70;99.90;;;20.04;68.75;94848.25;6177141;23;20393;-55
2022/09/11 01:30:50;;;;;;;5.80;5.30;;;19.70;99.90;;;20.02;68.42;94852.16;6176387;23;20393;-56
2022/09/11 01:33:22;;;;;;;6.93;5.83;;;19.60;99.90;;;20.00;68.62;94841.69;6177141;23;20401;-56
2022/09/11 01:35:55;;;;;;;6.27;5.67;;;19.60;99.90;;;19.99;68.80;94836.56;6176131;23;20902;-56
2022/09/11 01:38:28;;;;;;;13.30;4.77;;;19.60;99.90;;;19.99;68.87;94839.22;6176972;23;20439;-55
2022/09/11 01:40:57;;;;;;;5.70;5.20;;;19.60;99.90;;;19.99;68.62;94831.22;6176736;23;20492;-55
2022/09/11 01:43:28;;;;;;;7.37;5.33;;;19.60;99.90;;;20.01;68.77;94837.16;6177016;23;20401;-56
2022/09/11 01:45:55;;;;;;;10.37;6.10;;;19.60;99.90;;;20.01;68.67;94827.28;6176793;23;20394;-56
2022/09/11 01:48:24;;;;;;;9.60;5.70;;;19.60;99.90;;;20.02;68.61;94818.28;6176813;23;20476;-56
2022/09/11 01:50:52;;;;;;;11.03;4.93;;;19.60;99.90;;;20.04;68.76;94824.22;6175958;23;20402;-53
2022/09/11 01:53:21;;;;;;;16.50;4.97;;;19.60;99.90;;;20.05;68.89;94820.56;6175469;23;20410;-56
2022/09/11 01:55:51;;;;;;;7.20;5.37;;;19.60;99.90;;;20.07;68.40;94809.66;6176741;23;20406;-55
2022/09/11 01:58:20;;;;;;;12.03;4.90;;;19.60;99.90;;;20.09;68.28;94812.94;6176301;23;20464;-56
2022/09/11 02:00:50;;;;;;;7.10;6.27;;;19.70;99.90;;;20.09;68.32;94817.47;6175211;23;20568;-56
2022/09/11 02:03:19;;;;;;;9.67;4.97;;;19.70;99.90;;;20.08;68.43;94805.13;6176335;23;20464;-55
2022/09/11 02:05:50;;;;;;;5.03;4.63;;;19.70;99.90;;;20.08;68.26;94810.47;6176375;23;20412;-54
2022/09/11 02:08:19;;;;;;;5.40;4.90;;;19.70;99.90;;;20.05;68.42;94807.19;6175561;23;20910;-55
2022/09/11 02:10:50;;;;;;;5.70;5.20;;;19.70;99.90;;;20.03;68.47;94809.25;6174435;23;20483;-54
2022/09/11 02:13:21;;;;;;;6.13;4.80;;;19.60;99.90;;;20.02;68.71;94807.59;6173978;23;20549;-56
2022/09/11 02:15:52;;;;;;;6.53;5.40;;;19.60;99.90;;;19.99;68.36;94813.34;6174941;23;20417;-56
2022/09/11 02:18:24;;;;;;;22.77;4.90;;;19.60;99.90;;;19.96;68.41;94803.06;6173885;23;20401;-55
2022/09/11 02:20:51;;;;;;;5.97;5.47;;;19.60;99.90;;;19.96;68.58;94807.59;6174476;23;20508;-56
2022/09/11 02:23:18;;;;;;;6.17;5.57;;;19.60;99.90;;;19.92;68.77;94801.78;6174074;23;20464;-54
2022/09/11 02:25:46;;;;;;;5.50;4.67;;;19.50;99.90;;;19.91;68.94;94800.16;6177206;23;20409;-57
2022/09/11 02:28:14;;;;;;;5.53;5.20;;;19.50;99.90;;;19.88;68.64;94804.06;6178563;23;20656;-56
2022/09/11 02:30:41;;;;;;;9.20;4.50;;;19.50;99.90;;;19.87;68.79;94806.91;6178748;23;20401;-56
2022/09/11 02:33:32;;;;;;;5.70;5.20;;;19.50;99.90;;;19.84;68.92;94802.78;6178550;23;20405;-52
2022/09/11 02:36:30;;;;;;;5.87;5.37;;;19.40;99.90;;;19.81;69.24;94805.03;6178767;23;20958;-55
2022/09/11 02:39:07;;;;;;;6.30;4.70;;;19.40;99.90;;;19.77;69.52;94809.13;6178039;23;20513;-55
2022/09/11 02:41:41;;;;;;;5.70;5.20;;;19.40;99.90;;;19.73;69.03;94799.84;6178145;23;20468;-56
2022/09/11 02:44:09;;;;;;;8.60;5.50;;;19.40;99.90;;;19.70;69.41;94799.25;6178155;23;20417;-56
2022/09/11 02:46:59;;;;;;;5.20;4.80;;;19.30;99.90;;;19.70;69.75;94799.25;6179363;23;20464;-55
2022/09/11 02:49:39;;;;;;;6.13;5.57;;;19.30;99.90;;;19.68;69.70;94801.25;6178494;23;20429;-55
2022/09/11 02:52:11;;;;;;;6.67;5.47;;;19.30;99.90;;;19.66;69.99;94805.97;6178632;23;20814;-56
2022/09/11 02:54:46;;;;;;;7.60;5.60;;;19.30;99.90;;;19.64;70.06;94799.19;6178620;23;20807;-55
2022/09/11 02:57:18;;;;;;;6.07;5.47;;;19.20;99.90;;;19.60;70.08;94798.78;6177977;23;20778;-55
2022/09/11 02:59:47;;;;;;;9.27;5.50;;;19.20;99.90;;;19.58;70.28;94795.47;6178334;23;20452;-56
2022/09/11 03:02:15;;;;;;;6.03;5.50;;;19.20;99.90;;;19.54;70.73;94799.56;6177757;23;20401;-55
2022/09/11 03:04:44;;;;;;;5.57;5.07;;;19.20;99.90;;;19.53;70.46;94808.56;6177324;23;20946;-54
2022/09/11 03:07:11;;;;;;;5.47;4.97;;;19.20;99.90;;;19.49;70.78;94807.34;6177904;23;20441;-55
2022/09/11 03:09:38;;;;;;;9.87;5.67;;;19.10;99.90;;;19.45;70.86;94811.41;6178118;23;20906;-53
2022/09/11 03:12:06;;;;;;;9.00;6.13;;;19.10;99.90;;;19.41;70.65;94810.97;6179306;23;20410;-54
2022/09/11 03:14:34;;;;;;;26.77;6.17;;;19.10;99.90;;;19.39;71.40;94814.84;6178218;23;20594;-56
2022/09/11 03:17:02;;;;;;;8.77;5.40;;;19.00;99.90;;;19.34;71.26;94816.25;6177866;23;20489;-55
2022/09/11 03:19:29;;;;;;;6.07;5.47;;;19.00;99.90;;;19.30;71.10;94815.03;6177521;23;20500;-54
2022/09/11 03:21:58;;;;;;;8.00;5.07;;;19.00;99.90;;;19.25;71.74;94806.75;6178137;23;20429;-54
2022/09/11 03:24:26;;;;;;;9.13;5.60;;;18.90;99.90;;;19.23;71.07;94816.00;6177998;23;20422;-55
2022/09/11 03:26:53;;;;;;;6.13;5.63;;;18.90;99.90;;;19.19;71.78;94812.88;6178349;23;20488;-55
2022/09/11 03:29:20;;;;;;;9.60;5.20;;;18.80;99.90;;;19.16;71.41;94823.94;6178101;23;20425;-56
2022/09/11 03:31:47;;;;;;;6.77;6.17;;;18.80;99.90;;;19.13;71.81;94822.50;6178038;23;20464;-55
2022/09/11 03:34:16;;;;;;;9.30;6.10;;;18.80;99.90;;;19.11;71.77;94829.03;6177653;23;20766;-54
2022/09/11 03:36:44;;;;;;;7.13;6.37;;;18.80;99.90;;;19.06;72.18;94829.59;6178239;23;20500;-55
2022/09/11 03:39:13;;;;;;;8.20;6.10;;;18.70;99.90;;;19.02;71.72;94830.19;6177576;23;20429;-54
2022/09/11 03:41:40;;;;;;;8.33;6.17;;;18.70;99.90;;;18.97;72.22;94831.56;6178353;23;20522;-55
2022/09/11 03:44:07;;;;;;;6.07;5.47;;;18.60;99.90;;;18.94;71.77;94834.63;6177371;23;20434;-56
2022/09/11 03:46:35;;;;;;;7.67;5.87;;;18.60;99.90;;;18.90;71.65;94836.06;6178186;23;20571;-56
2022/09/11 03:49:02;;;;;;;13.00;6.17;;;18.60;99.90;;;18.86;72.02;94834.78;6178265;23;20422;-55
2022/09/11 03:51:30;;;;;;;6.43;5.43;;;18.50;99.90;;;18.83;72.11;94835.13;6178282;23;20406;-57
2022/09/11 03:53:59;;;;;;;7.27;5.77;;;18.50;99.90;;;18.79;72.43;94839.19;6178209;23;20755;-56
2022/09/11 03:56:28;;;;;;;6.80;5.50;;;18.50;99.90;;;18.77;72.38;94827.91;6177918;23;20406;-54
2022/09/11 03:58:57;;;;;;;8.20;5.37;;;18.40;99.90;;;18.74;72.04;94834.41;6176790;23;20453;-56
2022/09/11 04:01:24;;;;;;;6.53;5.90;;;18.40;99.90;;;18.72;72.47;94839.13;6176678;23;20855;-55
2022/09/11 04:03:51;;;;;;;7.10;6.10;;;18.40;99.90;;;18.71;71.92;94839.31;6176725;23;20492;-54
2022/09/11 04:06:19;;;;;;;5.87;5.37;;;18.30;99.90;;;18.69;72.65;94844.03;6177276;23;20464;-57
2022/09/11 04:08:46;;;;;;;6.23;5.70;;;18.30;99.90;;;18.67;72.11;94851.38;6177583;23;20937;-56
2022/09/11 04:11:14;;;;;;;10.67;6.20;;;18.30;99.90;;;18.66;72.71;94849.72;6177691;23;20835;-56
2022/09/11 04:13:42;;;;;;;6.43;5.83;;;18.30;99.90;;;18.64;72.81;94847.25;6178054;23;20504;-56
2022/09/11 04:16:12;;;;;;;6.30;5.70;;;18.30;99.90;;;18.64;72.66;94852.59;6177632;23;20464;-56
2022/09/11 04:18:40;;;;;;;6.73;6.03;;;18.30;99.90;;;18.62;72.97;94852.78;6177284;23;20421;-56
2022/09/11 04:21:08;;;;;;;8.10;6.03;;;18.30;99.90;;;18.61;72.22;94851.13;6177453;23;20705;-53
2022/09/11 04:23:35;;;;;;;6.20;5.70;;;18.20;99.90;;;18.61;72.64;94842.31;6177596;23;20476;-55
2022/09/11 04:26:02;;;;;;;6.90;5.80;;;18.30;99.90;;;18.59;72.32;94850.50;6177130;23;20981;-55
2022/09/11 04:28:31;;;;;;;6.13;5.63;;;18.30;99.90;;;18.59;72.21;94844.31;6177582;23;20425;-56
2022/09/11 04:31:03;;;;;;;12.43;6.27;;;18.30;99.90;;;18.59;72.96;94844.31;6177277;23;20504;-53
2022/09/11 04:33:31;;;;;;;5.57;5.17;;;18.20;99.90;;;18.59;72.21;94845.16;6175626;23;20485;-56
2022/09/11 04:35:58;;;;;;;7.67;5.80;;;18.30;99.90;;;18.61;72.85;94847.63;6177220;23;20405;-57
2022/09/11 04:38:25;;;;;;;11.17;5.23;;;18.30;99.90;;;18.63;72.38;94851.75;6177807;23;20456;-58
2022/09/11 04:40:52;;;;;;;7.80;6.27;;;18.20;99.90;;;18.64;72.87;94849.94;6176945;23;20973;-56
2022/09/11 04:43:19;;;;;;;6.47;5.87;;;18.20;99.90;;;18.67;72.52;94852.22;6177460;23;20412;-55
2022/09/11 04:45:47;;;;;;;7.57;6.87;;;18.30;99.90;;;18.69;72.74;94852.84;6177641;23;20405;-57
2022/09/11 04:48:15;;;;;;;11.53;6.73;;;18.30;99.90;;;18.72;72.61;94848.97;6177193;23;20467;-56
2022/09/11 04:50:43;;;;;;;6.53;5.93;;;18.40;99.90;;;18.77;71.91;94857.22;6177122;23;20803;-56
2022/09/11 04:53:10;;;;;;;11.17;6.30;;;18.40;99.90;;;18.81;72.24;94853.97;6176967;23;20496;-56
2022/09/11 04:55:37;;;;;;;7.33;6.67;;;18.40;99.90;;;18.86;71.96;94857.94;6177237;23;20406;-56
2022/09/11 04:58:04;;;;;;;8.13;6.87;;;18.50;99.90;;;18.90;71.99;94854.72;6177367;23;20712;-56
2022/09/11 05:00:32;;;;;;;15.27;6.70;;;18.50;99.90;;;18.96;72.17;94861.09;6177082;23;20445;-54
2022/09/11 05:03:00;;;;;;;8.63;7.40;;;18.60;99.90;;;19.02;72.11;94859.50;6177554;23;20754;-57
2022/09/11 05:05:29;;;;;;;8.10;7.40;;;18.60;99.90;;;19.06;71.97;94850.94;6177511;23;20436;-57
2022/09/11 05:07:56;;;;;;;12.63;7.37;;;18.70;99.90;;;19.12;71.16;94862.69;6177004;23;20409;-55
2022/09/11 05:10:26;;;;;;;9.30;7.63;;;18.70;99.90;;;19.19;71.54;94863.53;6177062;23;20492;-56
2022/09/11 05:12:53;;;;;;;9.00;7.83;;;18.80;99.90;;;19.30;71.59;94852.34;6177039;23;20472;-55
2022/09/11 05:15:20;;;;;;;9.27;8.47;;;18.90;99.90;;;19.42;71.53;94859.81;6176851;23;20421;-57
2022/09/11 05:17:49;;;;;;;10.90;8.83;;;19.00;99.90;;;19.52;71.02;94857.63;6177128;23;20401;-57
2022/09/11 05:20:17;;;;;;;10.43;9.00;;;19.10;99.90;;;19.60;70.91;94856.66;6177054;23;20757;-57
2022/09/11 05:22:45;;;;;;;16.53;10.20;;;19.20;99.90;;;19.64;70.74;94853.41;6177609;23;21001;-54
2022/09/11 05:25:13;;;;;;;10.13;9.13;;;19.30;99.90;;;19.70;71.15;94847.28;6177180;23;20425;-54
2022/09/11 05:27:40;;;;;;;9.93;8.93;;;19.30;99.90;;;19.79;70.68;94850.63;6177181;23;20406;-55
2022/09/11 05:30:09;;;;;;;10.57;9.03;;;19.40;99.90;;;19.91;70.58;94853.56;6176968;23;20500;-55
2022/09/11 05:32:36;;;;;;;11.73;8.77;;;19.50;99.90;;;20.00;70.22;94855.03;6175132;23;20471;-56
2022/09/11 05:35:04;;;;;;;16.07;9.50;;;19.60;99.90;;;20.10;70.47;94867.19;6176898;23;20429;-56
2022/09/11 05:37:32;;;;;;;9.20;8.40;;;19.60;99.90;;;20.21;70.13;94858.59;6176944;23;20424;-54
2022/09/11 05:40:02;;;;;;;10.53;8.90;;;19.80;99.90;;;20.37;69.73;94862.75;6176469;23;20421;-55
2022/09/11 05:42:29;;;;;;;13.00;10.10;;;19.90;99.90;;;20.57;69.46;94860.16;6177026;23;20891;-56
2022/09/11 05:44:56;;;;;;;10.23;9.20;;;20.10;99.90;;;20.80;68.83;94859.00;6176125;23;20572;-58
2022/09/11 05:47:24;;;;;;;12.30;9.20;;;20.30;99.90;;;21.00;68.29;94853.66;6176749;23;20398;-55
2022/09/11 05:49:51;;;;;;;12.80;8.97;;;20.40;99.90;;;21.21;68.04;94858.81;6176077;23;20967;-57
2022/09/11 05:52:18;;;;;;;11.93;9.23;;;20.70;99.90;;;21.36;67.49;94860.44;6176322;23;20491;-57
2022/09/11 05:54:46;;;;;;;12.70;9.90;;;20.80;99.90;;;21.44;67.25;94863.75;6176158;23;20429;-56
2022/09/11 05:57:14;;;;;;;12.60;10.53;;;21.00;99.90;;;21.49;66.83;94866.63;6176701;23;20484;-55
2022/09/11 05:59:41;;;;;;;14.67;11.47;;;21.00;99.90;;;21.56;66.54;94857.78;6176592;23;20513;-55
2022/09/11 06:02:09;;;;;;;11.20;9.93;;;21.10;99.90;;;21.64;66.49;94860.22;6176813;23;20519;-58
2022/09/11 06:04:37;;;;;;;10.63;9.50;;;21.20;99.90;;;21.73;66.08;94856.28;6179056;23;20499;-58
2022/09/11 06:07:04;;;;;;;13.80;11.40;;;21.30;99.90;;;21.85;65.08;94859.97;6178537;23;20405;-55
2022/09/11 06:09:31;;;;;;;13.33;10.37;;;21.40;99.90;;;21.94;64.89;94865.13;6178571;23;20487;-57
2022/09/11 06:11:59;;;;;;;14.23;9.73;;;21.50;99.90;;;22.02;64.29;94859.53;6177994;23;20406;-56
2022/09/11 06:14:28;;;;;;;12.20;10.40;;;21.50;99.90;;;22.06;64.33;94867.94;6179079;23;20429;-56
2022/09/11 06:16:56;;;;;;;12.17;10.90;;;21.60;99.90;;;22.09;64.20;94863.00;6178956;23;20398;-55
2022/09/11 06:19:23;;;;;;;19.43;11.50;;;21.60;99.90;;;22.22;64.33;94869.34;6178445;23;20429;-55
2022/09/11 06:21:50;;;;;;;11.60;10.50;;;21.70;99.90;;;22.42;64.22;94864.75;6178242;23;20838;-56
2022/09/11 06:24:17;;;;;;;12.17;10.47;;;21.90;99.90;;;22.69;63.17;94865.41;6178302;23;20430;-56
2022/09/11 06:26:45;;;;;;;13.97;10.47;;;22.10;99.90;;;23.02;62.68;94868.91;6178143;23;20483;-56
2022/09/11 06:29:13;;;;;;;15.60;9.80;;;22.40;99.90;;;23.29;62.35;94874.94;6178580;23;20901;-55
2022/09/11 06:31:42;;;;;;;11.07;10.00;;;22.70;99.90;;;23.56;61.98;94880.91;6178011;23;20922;-55
2022/09/11 06:34:09;;;;;;;10.70;9.60;;;22.90;99.90;;;23.86;60.71;94879.41;6178259;23;20429;-55
2022/09/11 06:36:36;;;;;;;10.40;9.00;;;23.30;99.60;;;24.10;59.88;94872.31;6178387;23;20467;-55
2022/09/11 06:39:04;;;;;;;12.03;10.40;;;23.50;98.80;;;24.26;59.42;94873.56;6177882;23;20863;-57
2022/09/11 06:41:31;;;;;;;12.00;10.73;;;23.60;98.30;;;24.31;59.03;94876.44;6177355;23;20514;-56
2022/09/11 06:43:58;;;;;;;12.20;10.90;;;23.70;98.20;;;24.41;58.79;94875.88;6178071;23;20520;-55
2022/09/11 06:46:26;;;;;;;10.80;9.80;;;23.90;98.00;;;24.55;58.62;94876.53;6178818;23;20401;-56
2022/09/11 06:48:56;;;;;;;11.23;9.93;;;24.00;97.90;;;24.72;58.43;94882.13;6178024;23;20425;-54
2022/09/11 06:51:23;;;;;;;11.33;9.70;;;24.10;97.80;;;25.02;58.15;94884.84;6178368;23;20511;-55
2022/09/11 06:53:54;;;;;;;10.73;9.80;;;24.40;97.50;;;25.40;57.10;94883.63;6177914;23;20425;-57
2022/09/11 06:56:21;;;;;;;11.57;9.00;;;24.70;96.80;;;25.76;57.24;94885.31;6178286;23;20389;-56
2022/09/11 06:58:49;;;;;;;10.23;9.33;;;25.10;96.50;;;26.18;55.90;94875.44;6178556;23;20535;-56
2022/09/11 07:01:18;;;;;;;10.80;9.13;;;25.50;95.80;;;26.46;55.41;94880.88;6178284;23;20797;-55
2022/09/11 07:03:47;;;;;;;9.70;8.80;;;25.80;95.30;;;26.70;54.36;94872.72;6177323;23;20428;-57
2022/09/11 07:06:16;;;;;;;12.87;9.33;;;26.10;94.40;;;27.05;53.72;94876.31;6179017;23;20404;-54
2022/09/11 07:08:43;;;;;;;10.77;9.77;;;26.40;94.00;;;27.36;53.20;94869.63;6178355;23;20460;-57
2022/09/11 07:11:11;;;;;;;12.60;9.93;;;26.70;93.40;;;27.64;53.16;94873.28;6178002;23;20397;-57
2022/09/11 07:13:38;;;;;;;9.70;8.90;;;26.90;93.00;;;27.94;51.92;94869.41;6176903;23;20721;-56
2022/09/11 07:16:08;;;;;;;11.60;10.50;;;27.30;91.90;;;28.21;50.79;94878.47;6178483;23;20520;-55
2022/09/11 07:18:35;;;;;;;11.17;9.20;;;27.50;91.30;;;28.54;50.55;94870.47;6178686;23;20420;-56
2022/09/11 07:21:06;;;;;;;8.93;7.90;;;27.80;90.90;;;28.85;49.00;94876.25;6177501;23;20409;-56
2022/09/11 07:23:34;;;;;;;9.90;9.00;;;28.10;89.00;;;29.04;49.94;94872.09;6177708;23;20504;-56
2022/09/11 07:26:05;;;;;;;9.80;8.70;;;28.40;88.60;;;29.32;49.18;94876.44;6177960;23;20509;-55
2022/09/11 07:28:33;;;;;;;9.97;8.97;;;28.60;86.50;;;29.49;48.08;94870.91;6177895;23;20452;-56
2022/09/11 07:31:05;;;;;;;9.13;8.27;;;28.80;84.80;;;29.57;47.44;94864.19;6177630;23;20401;-56
2022/09/11 07:33:33;;;;;;;9.47;8.57;;;29.00;83.40;;;29.83;48.22;94858.97;6177575;23;20432;-57
2022/09/11 07:36:00;;;;;;;9.43;8.37;;;29.10;83.20;;;30.24;47.73;94858.38;6177786;23;20405;-56
2022/09/11 07:38:30;;;;;;;10.23;7.70;;;29.40;82.10;;;30.72;46.73;94854.53;6177446;23;20460;-56
2022/09/11 07:40:59;;;;;;;7.53;6.83;;;29.90;80.30;;;31.25;46.60;94856.31;6178282;23;20397;-55
2022/09/11 07:43:26;;;;;;;11.30;7.70;;;30.40;79.30;;;31.76;45.19;94856.31;6177782;23;20397;-55
2022/09/11 07:45:55;;;;;;;7.47;6.87;;;31.00;76.80;;;32.23;44.62;94856.25;6178149;23;20181;-56
2022/09/11 07:48:22;;;;;;;9.33;8.43;;;31.50;75.00;;;32.55;43.03;94858.56;6177305;23;20170;-55
2022/09/11 07:50:57;;;;;;;9.17;8.23;;;32.00;70.50;;;32.67;40.81;94864.53;6177753;23;20200;-56
2022/09/11 07:53:25;;;;;;;8.07;7.22;;;32.30;66.20;;;32.82;42.60;94860.91;6177703;23;20652;-55
2022/09/11 07:55:53;;;;;;;8.35;7.55;;;32.50;67.40;;;33.09;42.21;94867.81;6177464;23;20248;-56
2022/09/11 07:58:22;;;;;;;7.68;7.13;;;32.80;67.00;;;33.28;41.72;94856.28;6177659;23;20176;-55
2022/09/11 08:00:49;;;;;;;8.35;7.63;;;32.90;65.20;;;33.39;38.76;94857.84;6177563;23;20170;-55
2022/09/11 08:03:16;;;;;;;8.55;7.38;;;33.10;59.40;;;33.59;40.37;94851.41;6177808;23;20252;-57
2022/09/11 08:05:43;;;;;;;7.72;7.00;;;33.30;61.70;;;33.89;38.58;94850.34;6177859;23;20597;-56
2022/09/11 08:08:11;;;;;;;7.80;7.05;;;33.50;59.00;;;34.18;39.82;94846.78;6177426;23;20236;-55
2022/09/11 08:10:39;;;;;;;8.52;6.18;;;33.80;59.30;;;34.46;38.31;94841.56;6177427;23;20580;-56
2022/09/11 08:13:07;;;;;;;7.10;6.45;;;34.00;58.20;;;34.73;38.46;94845.59;6177079;23;20669;-54
2022/09/11 08:15:36;;;;;;;8.98;6.72;;;34.30;57.60;;;34.96;37.10;94841.19;6177528;23;20170;-56
2022/09/11 08:18:04;;;;;;;6.95;6.35;;;34.70;56.00;;;35.09;37.35;94847.84;6176961;23;20177;-57
2022/09/11 08:20:32;;;;;;;6.88;6.38;;;34.90;55.20;;;35.20;37.50;94843.88;6176440;23;20194;-57
2022/09/11 08:22:59;;;;;;;8.60;7.80;;;35.10;54.40;;;35.39;36.35;94841.13;6177368;23;20236;-56
2022/09/11 08:25:27;;;;;;;8.13;7.00;;;35.30;54.10;;;35.64;36.66;94841.81;6176684;23;20190;-55
2022/09/11 08:27:54;;;;;;;10.48;7.68;;;35.50;53.40;;;35.87;36.25;94834.63;6177053;23;20480;-57
2022/09/11 08:30:22;;;;;;;9.77;8.57;;;35.80;52.90;;;36.04;35.41;94832.09;6176987;23;20190;-56
2022/09/11 08:32:50;;;;;;;7.03;6.47;;;35.90;52.10;;;36.21;35.03;94834.22;6175962;23;20509;-56
2022/09/11 08:35:17;;;;;;;8.65;7.90;;;36.10;51.20;;;36.30;34.36;94834.38;6176153;23;20201;-56
2022/09/11 08:37:45;;;;;;;10.10;8.40;;;36.20;50.50;;;36.34;32.46;94835.38;6177409;23;20249;-56
2022/09/11 08:40:12;;;;;;;9.75;8.75;;;36.10;47.10;;;36.19;34.04;94831.00;6176929;23;20333;-56
2022/09/11 08:42:40;;;;;;;13.45;7.47;;;36.00;49.60;;;36.12;34.43;94838.78;6177179;23;20201;-56
2022/09/11 08:45:10;;;;;;;8.38;7.78;;;35.80;50.10;;;36.12;34.18;94830.56;6177080;23;20190;-56
2022/09/11 08:47:38;;;;;;;6.97;6.47;;;35.80;50.30;;;36.18;34.90;94839.53;6177571;23;20228;-57
2022/09/11 08:50:09;;;;;;;8.32;7.60;;;35.80;50.10;;;36.26;33.80;94827.88;6177050;23;20532;-56
2022/09/11 08:52:36;;;;;;;8.48;7.57;;;35.80;49.50;;;36.28;33.38;94833.06;6177614;23;20493;-57
2022/09/11 08:55:05;;;;;;;8.90;7.03;;;35.80;48.80;;;36.27;33.27;94826.78;6177105;23;20252;-56
2022/09/11 08:57:40;;;;;;;6.78;6.15;;;35.70;48.70;;;36.22;33.08;94824.09;6177281;23;20177;-56
2022/09/11 09:00:14;;;;;;;7.65;7.05;;;35.60;48.60;;;35.99;29.44;94815.78;6176510;23;20732;-56
2022/09/11 09:03:12;;;;;;;8.13;7.32;;;35.50;44.30;;;35.69;32.25;94817.91;6176512;23;20193;-56
2022/09/11 09:05:46;;;;;;;8.93;7.55;;;35.20;46.60;;;35.44;33.10;94815.63;6177067;23;20244;-57
2022/09/11 09:08:28;;;;;;;11.70;7.68;;;35.00;47.50;;;35.42;32.38;94820.59;6176953;23;20170;-54
2022/09/11 09:11:00;;;;;;;8.90;8.20;;;34.80;47.50;;;35.21;33.83;94807.19;6176923;23;20231;-55
2022/09/11 09:13:50;;;;;;;8.40;7.70;;;34.70;48.10;;;35.05;32.61;94806.63;6176853;23;20289;-57
2022/09/11 09:16:28;;;;;;;8.85;8.00;;;34.50;47.30;;;35.10;32.52;94800.28;6175877;23;20231;-57
2022/09/11 09:18:59;;;;;;;7.88;6.93;;;34.50;47.50;;;35.19;30.51;94793.00;6176574;23;20745;-56
2022/09/11 09:21:31;;;;;;;6.47;6.07;;;34.50;43.70;;;34.95;30.97;94788.47;6176847;23;20173;-55
2022/09/11 09:24:02;;;;;;;7.60;7.10;;;34.30;43.90;;;34.75;31.08;94788.72;6176971;23;20267;-53
2022/09/11 09:26:33;;;;;;;8.05;7.38;;;34.20;45.10;;;34.76;32.27;94790.38;6176370;23;20162;-55
2022/09/11 09:29:00;;;;;;;7.85;7.25;;;34.10;46.60;;;34.89;32.95;94786.91;6176797;23;20185;-57
2022/09/11 09:31:30;;;;;;;7.70;7.05;;;34.20;46.80;;;35.07;32.14;94784.47;6176407;23;20216;-57
2022/09/11 09:34:00;;;;;;;7.25;6.60;;;34.30;46.10;;;35.21;32.29;94785.31;6176447;23;20198;-56
2022/09/11 09:36:32;;;;;;;7.25;6.65;;;34.40;46.00;;;35.39;31.23;94772.75;6176855;23;20162;-53
2022/09/11 09:38:59;;;;;;;7.88;7.18;;;34.60;45.80;;;35.57;31.53;94771.06;6177402;23;20190;-54
2022/09/11 09:42:10;;;;;;;8.00;7.32;;;34.70;45.60;;;35.65;31.21;94772.28;6177126;23;20170;-57
2022/09/11 09:44:54;;;;;;;8.55;7.82;;;34.90;44.00;;;35.63;30.34;94772.59;6136526;23;20276;-55
2022/09/11 09:47:21;;;;;;;11.63;6.70;;;34.90;44.40;;;35.51;31.70;94778.56;6176334;23;20424;-57
2022/09/11 09:49:48;;;;;;;5.70;5.40;;;34.80;44.90;;;35.47;30.78;94776.72;6176464;23;20472;-54
2022/09/11 09:52:19;;;;;;;6.88;6.38;;;34.80;44.40;;;35.53;30.74;94770.84;6175988;23;20694;-56
2022/09/11 09:54:53;;;;;;;6.88;6.38;;;34.80;44.70;;;35.68;30.84;94775.25;6176966;23;20257;-53
2022/09/11 09:57:22;;;;;;;7.38;6.05;;;34.90;44.80;;;35.79;31.27;94777.81;6176232;23;20158;-56
2022/09/11 09:59:52;;;;;;;6.80;6.32;;;35.00;44.80;;;35.83;31.03;94768.69;6176450;23;20586;-57
2022/09/11 10:02:38;;;;;;;7.72;7.13;;;35.10;44.70;;;35.94;30.64;94763.84;6176505;23;20252;-54
2022/09/11 10:05:18;;;;;;;8.13;7.15;;;35.20;44.40;;;36.05;30.17;94762.53;6176413;23;20220;-57
2022/09/11 10:07:53;;;;;;;9.55;6.80;;;35.20;43.80;;;36.11;31.03;94754.22;6176780;23;20161;-55
2022/09/11 10:10:30;;;;;;;7.07;6.47;;;35.30;44.20;;;36.17;30.44;94750.25;6176887;23;20259;-57
2022/09/11 10:13:01;;;;;;;7.03;6.38;;;35.40;43.70;;;36.15;30.41;94753.28;6176696;23;20158;-55
2022/09/11 10:15:28;;;;;;;11.05;7.38;;;35.40;43.90;;;36.18;30.44;94747.22;6177210;23;20193;-56
2022/09/11 10:18:21;;;;;;;7.40;6.78;;;35.40;43.70;;;36.10;30.23;94736.97;6176616;23;20173;-55
2022/09/11 10:20:48;;;;;;;7.70;7.00;;;35.40;43.30;;;35.83;30.69;94752.28;6176984;23;20170;-56
2022/09/11 10:23:25;;;;;;;7.85;5.93;;;35.20;43.50;;;35.58;30.69;94744.53;6175953;23;20201;-55
2022/09/11 10:25:52;;;;;;;6.30;5.90;;;34.90;43.10;;;35.27;31.92;94742.31;6177051;23;20235;-55
2022/09/11 10:28:25;;;;;;;6.65;5.93;;;34.70;43.90;;;34.95;31.24;94750.19;6175781;23;20173;-57
2022/09/11 10:30:58;;;;;;;5.95;5.50;;;34.40;44.00;;;34.82;30.98;94751.75;6176201;23;20166;-56